Time;durP1;ratioP1;P1;durP2;ratioP2;P2;SDS_P1;SDS_P2;PMS_P1;PMS_P2;Temp;Humidity;BMP_temperature;BMP_pressure;BME280_temperature;BME280_humidity;BME280_pressure;Samples;Min_cycle;Max_cycle;Signal;HPM_P1;HPM_P2
2021/12/27 00:00:48;;;;;;;13.90;12.07;;;;;;;-2.08;84.55;100105.97;5081931;28;20203;-79
2021/12/27 00:03:15;;;;;;;13.43;12.03;;;;;;;-2.07;84.62;100098.34;5081719;28;20216;-79
2021/12/27 00:05:41;;;;;;;14.30;12.77;;;;;;;-2.06;84.55;100099.19;5083380;28;20269;-78
2021/12/27 00:08:08;;;;;;;14.13;12.73;;;;;;;-2.11;84.56;100099.09;5079210;28;20200;-77
2021/12/27 00:10:35;;;;;;;12.87;11.67;;;;;;;-2.06;84.26;100097.53;5083745;28;20295;-78
2021/12/27 00:13:04;;;;;;;12.53;11.23;;;;;;;-2.04;84.03;100105.25;5081048;28;20227;-78
2021/12/27 00:15:31;;;;;;;13.33;12.03;;;;;;;-2.05;84.19;100100.94;5078918;28;20242;-78
2021/12/27 00:17:57;;;;;;;12.03;10.80;;;;;;;-2.04;84.42;100089.91;5080569;28;20208;-79
2021/12/27 00:20:24;;;;;;;12.63;11.43;;;;;;;-2.04;84.44;100087.34;5081250;28;20238;-78
2021/12/27 00:22:51;;;;;;;13.27;11.83;;;;;;;-2.01;84.77;100087.41;5082696;28;21365;-78
2021/12/27 00:25:18;;;;;;;13.93;12.30;;;;;;;-2.02;84.76;100078.88;5084573;28;20623;-78
2021/12/27 00:27:45;;;;;;;13.53;12.27;;;;;;;-2.03;84.69;100072.03;5081520;28;20215;-78
2021/12/27 00:30:15;;;;;;;14.13;12.30;;;;;;;-2.01;84.80;100057.59;5081668;28;20891;-77
2021/12/27 00:32:43;;;;;;;12.80;11.50;;;;;;;-1.97;84.74;100055.97;5084618;28;20216;-79
2021/12/27 00:35:11;;;;;;;13.33;11.93;;;;;;;-1.98;84.79;100050.81;5090980;28;20218;-78
2021/12/27 00:37:37;;;;;;;13.53;12.13;;;;;;;-1.98;85.09;100053.38;5085849;28;20209;-78
2021/12/27 00:40:05;;;;;;;14.00;11.40;;;;;;;-1.97;84.65;100038.06;5082959;28;20626;-78
2021/12/27 00:42:32;;;;;;;13.63;12.17;;;;;;;-1.97;84.35;100040.63;5081687;28;20227;-78
2021/12/27 00:44:58;;;;;;;13.83;12.07;;;;;;;-2.04;84.93;100028.53;5077750;28;20207;-78
2021/12/27 00:47:26;;;;;;;14.53;13.03;;;;;;;-2.04;84.97;100029.41;5082690;28;20223;-78
2021/12/27 00:49:52;;;;;;;13.33;12.03;;;;;;;-2.03;84.89;100023.44;5082683;28;20205;-78
2021/12/27 00:52:19;;;;;;;13.30;12.00;;;;;;;-2.03;85.08;100015.75;5082049;28;20245;-77
2021/12/27 00:54:45;;;;;;;13.83;12.53;;;;;;;-1.99;85.39;100006.47;5085464;28;20694;-78
2021/12/27 00:57:12;;;;;;;13.23;12.10;;;;;;;-1.96;85.05;100010.81;5080554;28;20578;-79
2021/12/27 00:59:38;;;;;;;13.87;12.47;;;;;;;-2.00;84.98;100017.56;5080760;28;20489;-78
2021/12/27 01:02:05;;;;;;;13.07;11.90;;;;;;;-1.97;84.97;100012.50;5083917;28;20224;-77
2021/12/27 01:04:33;;;;;;;13.33;12.03;;;;;;;-1.93;84.89;100016.88;5082027;28;20220;-79
2021/12/27 01:06:59;;;;;;;13.40;12.20;;;;;;;-1.98;85.27;100021.03;5083564;28;20219;-78
2021/12/27 01:09:36;;;;;;;15.13;13.67;;;;;;;-1.93;85.34;100009.19;5084645;28;20207;-78
2021/12/27 01:12:23;;;;;;;13.43;12.23;;;;;;;-1.93;84.77;100009.19;5086230;28;20709;-77
2021/12/27 01:15:07;;;;;;;14.17;12.87;;;;;;;-1.95;85.23;100010.84;5080829;28;20710;-78
2021/12/27 01:17:34;;;;;;;15.60;12.77;;;;;;;-1.97;85.46;99999.72;5083548;28;20210;-78
2021/12/27 01:20:04;;;;;;;13.60;12.30;;;;;;;-1.92;85.93;99989.59;5082724;28;20201;-78
2021/12/27 01:22:31;;;;;;;13.87;12.57;;;;;;;-1.87;85.77;99986.31;5089108;28;20227;-78
2021/12/27 01:24:58;;;;;;;14.53;13.03;;;;;;;-1.83;85.05;99990.69;5086595;28;20204;-78
2021/12/27 01:27:25;;;;;;;13.30;11.97;;;;;;;-1.87;84.90;99998.25;5085229;28;20220;-77
2021/12/27 01:29:51;;;;;;;13.63;12.37;;;;;;;-1.85;84.74;100001.72;5088735;28;20203;-77
2021/12/27 01:32:18;;;;;;;13.77;12.30;;;;;;;-1.85;84.38;100006.81;5091837;28;20216;-78
2021/12/27 01:34:45;;;;;;;13.37;11.97;;;;;;;-1.84;84.91;100004.31;5098495;22;20286;-79
2021/12/27 01:37:13;;;;;;;12.70;11.50;;;;;;;-1.81;84.73;99995.84;5054298;28;20284;-81
2021/12/27 01:39:39;;;;;;;13.63;11.63;;;;;;;-1.78;84.54;99997.59;5066359;28;20674;-81
2021/12/27 01:42:06;;;;;;;12.57;11.37;;;;;;;-1.85;84.64;100001.72;5070298;28;20201;-82
2021/12/27 01:44:32;;;;;;;13.23;12.00;;;;;;;-1.89;84.87;99994.78;5057717;28;20209;-79
2021/12/27 01:46:59;;;;;;;12.30;11.10;;;;;;;-1.92;85.22;99992.13;5068967;28;20623;-80
2021/12/27 01:49:25;;;;;;;13.50;11.37;;;;;;;-1.87;85.37;99988.03;5061575;28;20190;-80
2021/12/27 01:51:51;;;;;;;13.57;12.33;;;;;;;-1.81;85.12;99983.03;5064699;28;20201;-82
2021/12/27 01:54:20;;;;;;;14.57;12.03;;;;;;;-1.81;84.80;99985.59;5057068;28;20691;-82
2021/12/27 01:56:46;;;;;;;12.70;11.33;;;;;;;-1.83;85.36;99990.69;5072736;28;20250;-82
2021/12/27 01:59:12;;;;;;;14.80;12.53;;;;;;;-1.81;85.24;99978.78;5058714;28;20227;-82
2021/12/27 02:01:39;;;;;;;13.80;12.47;;;;;;;-1.75;84.92;99972.09;5056381;28;20259;-81
2021/12/27 02:04:05;;;;;;;13.77;12.17;;;;;;;-1.75;84.52;99975.50;5064456;28;20194;-83
2021/12/27 02:06:31;;;;;;;14.27;12.23;;;;;;;-1.78;85.13;99965.22;5056800;28;20220;-82
2021/12/27 02:08:58;;;;;;;13.40;12.00;;;;;;;-1.73;84.86;99965.31;5072511;28;20255;-82
2021/12/27 02:11:26;;;;;;;13.53;12.13;;;;;;;-1.72;84.82;99973.03;5065128;28;20196;-82
2021/12/27 02:13:52;;;;;;;13.63;12.13;;;;;;;-1.71;84.48;99974.75;5058831;28;20216;-82
2021/12/27 02:16:22;;;;;;;14.87;12.30;;;;;;;-1.69;84.91;99973.09;5076558;28;20196;-79
2021/12/27 02:18:50;;;;;;;12.83;11.53;;;;;;;-1.68;84.94;99954.38;5058726;28;20587;-81
2021/12/27 02:21:18;;;;;;;13.93;11.07;;;;;;;-1.67;84.82;99980.81;5057194;28;20243;-82
2021/12/27 02:23:45;;;;;;;13.17;11.90;;;;;;;-1.68;84.76;99966.31;5065558;28;20198;-82
2021/12/27 02:26:12;;;;;;;12.83;11.57;;;;;;;-1.69;84.81;99965.41;5073782;28;20223;-82
2021/12/27 02:28:38;;;;;;;14.90;12.07;;;;;;;-1.68;84.85;99969.72;5065018;28;20334;-81
2021/12/27 02:31:05;;;;;;;12.33;10.93;;;;;;;-1.65;84.82;99968.91;5064587;28;20660;-82
2021/12/27 02:33:32;;;;;;;12.73;11.53;;;;;;;-1.65;84.68;99968.91;5067972;28;20201;-82
2021/12/27 02:36:00;;;;;;;11.00;9.97;;;;;;;-1.66;84.80;99964.63;5067424;28;20231;-82
2021/12/27 02:38:29;;;;;;;13.37;11.93;;;;;;;-1.65;84.80;99958.69;5076560;28;20209;-82
2021/12/27 02:40:57;;;;;;;11.97;10.63;;;;;;;-1.65;84.80;99958.69;5070483;28;20204;-82
2021/12/27 02:43:24;;;;;;;12.60;11.40;;;;;;;-1.68;84.71;99963.75;5065130;28;20208;-82
2021/12/27 02:45:55;;;;;;;13.13;11.93;;;;;;;-1.67;85.27;99948.41;5057601;28;20599;-82
2021/12/27 02:48:23;;;;;;;11.17;10.10;;;;;;;-1.68;85.16;99949.25;5057946;28;20201;-82
2021/12/27 02:50:50;;;;;;;12.10;10.90;;;;;;;-1.68;84.76;99940.72;5065626;28;20223;-82
2021/12/27 02:53:19;;;;;;;11.40;10.30;;;;;;;-1.71;84.75;99944.03;5057049;28;20198;-82
2021/12/27 02:55:47;;;;;;;13.20;11.90;;;;;;;-1.74;85.10;99935.47;5065678;28;20220;-82
2021/12/27 02:58:14;;;;;;;12.20;11.00;;;;;;;-1.74;85.28;99932.91;5065131;28;20193;-82
2021/12/27 03:00:43;;;;;;;12.27;11.00;;;;;;;-1.75;85.49;99923.47;5060050;28;20205;-81
2021/12/27 03:03:10;;;;;;;12.37;11.00;;;;;;;-1.74;85.71;99923.53;5070187;28;20192;-80
2021/12/27 03:05:36;;;;;;;11.80;10.70;;;;;;;-1.73;85.43;99919.25;5069958;28;20248;-83
2021/12/27 03:08:03;;;;;;;12.17;11.07;;;;;;;-1.71;85.16;99922.72;5063870;28;20263;-82
2021/12/27 03:10:32;;;;;;;12.47;11.17;;;;;;;-1.70;85.18;99920.19;5063798;28;20247;-82
2021/12/27 03:13:02;;;;;;;12.10;10.90;;;;;;;-1.71;85.40;99925.28;5057180;28;20201;-82
2021/12/27 03:15:29;;;;;;;11.77;10.53;;;;;;;-1.69;85.37;99913.38;5070295;28;20626;-82
2021/12/27 03:17:55;;;;;;;12.80;10.83;;;;;;;-1.75;85.80;99910.69;5075855;28;20253;-82
2021/12/27 03:20:26;;;;;;;11.17;10.07;;;;;;;-1.69;85.62;99903.16;5063719;28;20566;-82
2021/12/27 03:22:53;;;;;;;11.10;10.03;;;;;;;-1.68;85.65;99904.91;5065190;28;20199;-82
2021/12/27 03:25:22;;;;;;;12.77;11.57;;;;;;;-1.68;85.64;99897.22;5061188;28;20213;-82
2021/12/27 03:27:49;;;;;;;11.13;9.90;;;;;;;-1.65;85.55;99902.38;5068398;28;20232;-82
2021/12/27 03:30:19;;;;;;;11.53;10.53;;;;;;;-1.66;85.65;99908.34;5063883;28;20205;-82
2021/12/27 03:32:45;;;;;;;12.33;10.93;;;;;;;-1.66;85.90;99900.69;5062858;28;20318;-80
2021/12/27 03:35:15;;;;;;;10.67;9.63;;;;;;;-1.65;86.15;99887.88;5067765;28;20299;-80
2021/12/27 03:37:44;;;;;;;12.37;11.17;;;;;;;-1.63;85.99;99887.94;5070629;28;20221;-79
2021/12/27 03:40:13;;;;;;;15.43;10.70;;;;;;;-1.63;85.80;99898.16;5058488;28;20247;-79
2021/12/27 03:42:40;;;;;;;13.03;11.63;;;;;;;-1.62;86.17;99887.97;5063758;28;20197;-79
2021/12/27 03:45:08;;;;;;;13.00;11.43;;;;;;;-1.57;85.98;99892.31;5072488;28;20224;-82
2021/12/27 03:47:36;;;;;;;11.80;10.70;;;;;;;-1.58;85.79;99888.91;5057428;28;20235;-82
2021/12/27 03:50:03;;;;;;;14.23;12.77;;;;;;;-1.57;86.45;99877.81;5057644;28;20193;-82
2021/12/27 03:52:30;;;;;;;13.20;12.00;;;;;;;-1.53;86.00;99876.19;5065929;28;20197;-80
2021/12/27 03:54:56;;;;;;;20.23;18.37;;;;;;;-1.53;86.41;99864.25;5068171;28;20298;-79
2021/12/27 03:57:23;;;;;;;20.73;18.80;;;;;;;-1.50;86.40;99860.91;5076709;28;20192;-80
2021/12/27 04:00:04;;;;;;;16.47;14.97;;;;;;;-1.48;86.30;99859.25;5057088;28;20280;-80
2021/12/27 04:02:34;;;;;;;12.30;11.20;;;;;;;-1.48;86.40;99862.66;5056580;28;20192;-82
2021/12/27 04:05:02;;;;;;;13.77;11.60;;;;;;;-1.48;86.70;99854.13;5060700;28;20707;-80
2021/12/27 04:07:28;;;;;;;12.53;11.33;;;;;;;-1.47;86.66;99843.91;5069728;28;20217;-79
2021/12/27 04:09:54;;;;;;;12.43;11.13;;;;;;;-1.47;86.91;99845.59;5057597;28;20201;-82
2021/12/27 04:12:21;;;;;;;12.33;11.03;;;;;;;-1.51;87.56;99828.47;5070276;28;20199;-80
2021/12/27 04:14:47;;;;;;;12.70;10.83;;;;;;;-1.48;87.94;99805.50;5059000;28;20221;-80
2021/12/27 04:17:14;;;;;;;11.97;10.77;;;;;;;-1.46;87.52;99814.94;5069913;28;20302;-80
2021/12/27 04:19:40;;;;;;;12.47;10.07;;;;;;;-1.43;87.30;99816.66;5069710;28;20244;-80
2021/12/27 04:22:08;;;;;;;11.40;10.40;;;;;;;-1.44;87.41;99820.94;5075700;28;20246;-80
2021/12/27 04:24:34;;;;;;;11.70;10.60;;;;;;;-1.43;87.64;99811.56;5070638;28;20212;-82
2021/12/27 04:27:01;;;;;;;11.67;10.50;;;;;;;-1.38;87.70;99806.53;5057866;28;20240;-80
2021/12/27 04:29:28;;;;;;;12.10;11.00;;;;;;;-1.37;87.65;99798.00;5068546;28;20204;-82
2021/12/27 04:31:54;;;;;;;11.67;10.67;;;;;;;-1.37;87.58;99798.00;5066063;28;20201;-80
2021/12/27 04:34:20;;;;;;;12.30;11.10;;;;;;;-1.38;87.74;99793.75;5067928;28;20274;-80
2021/12/27 04:36:47;;;;;;;13.17;11.40;;;;;;;-1.37;87.76;99790.34;5069501;28;20189;-79
2021/12/27 04:39:14;;;;;;;12.77;11.47;;;;;;;-1.36;87.76;99792.94;5063091;28;20206;-79
2021/12/27 04:41:42;;;;;;;11.27;10.23;;;;;;;-1.37;87.88;99783.50;5067184;28;20200;-79
2021/12/27 04:44:08;;;;;;;12.33;11.13;;;;;;;-1.41;88.35;99774.94;5061360;28;20255;-80
2021/12/27 04:46:35;;;;;;;11.60;10.43;;;;;;;-1.37;88.57;99765.59;5053434;28;20659;-80
2021/12/27 04:49:01;;;;;;;11.47;10.47;;;;;;;-1.33;88.32;99756.28;5072301;28;20568;-79
2021/12/27 04:51:27;;;;;;;12.83;11.63;;;;;;;-1.33;87.88;99757.13;5062053;28;20686;-80
2021/12/27 04:53:54;;;;;;;16.50;11.80;;;;;;;-1.36;88.52;99746.00;5078280;28;20248;-79
2021/12/27 04:56:22;;;;;;;13.03;11.83;;;;;;;-1.39;88.82;99744.22;5061954;28;20266;-79
2021/12/27 04:58:49;;;;;;;12.63;11.43;;;;;;;-1.37;89.19;99727.19;5075346;28;20201;-82
2021/12/27 05:01:16;;;;;;;13.73;12.17;;;;;;;-1.30;89.08;99728.19;5062652;28;20190;-80
2021/12/27 05:03:42;;;;;;;13.13;11.77;;;;;;;-1.25;88.81;99726.53;5068663;28;20205;-80
2021/12/27 05:06:09;;;;;;;11.90;10.80;;;;;;;-1.22;88.72;99726.63;5069566;28;20748;-79
2021/12/27 05:08:36;;;;;;;13.23;11.93;;;;;;;-1.23;88.75;99730.88;5075921;28;20216;-80
2021/12/27 05:11:02;;;;;;;13.13;11.70;;;;;;;-1.29;88.78;99728.22;5057826;28;20243;-80
2021/12/27 05:13:31;;;;;;;11.97;10.93;;;;;;;-1.24;88.79;99718.91;5065810;28;20253;-79
2021/12/27 05:15:58;;;;;;;12.73;11.33;;;;;;;-1.23;88.88;99720.63;5062247;28;20208;-79
2021/12/27 05:18:25;;;;;;;12.17;11.17;;;;;;;-1.20;88.68;99727.50;5070065;28;20196;-79
2021/12/27 05:20:51;;;;;;;12.83;11.53;;;;;;;-1.20;88.51;99728.34;5057825;28;20194;-81
2021/12/27 05:23:17;;;;;;;12.90;11.70;;;;;;;-1.24;88.78;99713.78;5071470;28;20732;-82
2021/12/27 05:25:44;;;;;;;13.67;12.27;;;;;;;-1.20;88.66;99701.91;5059696;28;20326;-82
2021/12/27 05:28:10;;;;;;;12.87;11.77;;;;;;;-1.17;89.12;99708.75;5065471;28;20600;-79
2021/12/27 05:30:38;;;;;;;13.67;12.27;;;;;;;-1.15;88.78;99710.53;5061588;28;20205;-79
2021/12/27 05:33:05;;;;;;;12.90;11.70;;;;;;;-1.14;88.58;99707.13;5058027;28;20197;-82
2021/12/27 05:35:31;;;;;;;14.70;13.20;;;;;;;-1.12;88.40;99717.38;5066218;28;20224;-82
2021/12/27 05:37:58;;;;;;;21.77;15.33;;;;;;;-1.10;88.23;99715.72;5061525;28;20223;-79
2021/12/27 05:40:24;;;;;;;21.03;18.53;;;;;;;-1.13;88.30;99731.00;5063555;28;20216;-80
2021/12/27 05:42:53;;;;;;;13.93;12.63;;;;;;;-1.11;88.24;99719.09;5066528;28;20222;-79
2021/12/27 05:45:21;;;;;;;13.97;12.77;;;;;;;-1.16;88.33;99723.28;5062844;28;20227;-82
2021/12/27 05:47:49;;;;;;;15.53;14.10;;;;;;;-1.12;88.51;99712.25;5061227;28;20218;-82
2021/12/27 05:50:17;;;;;;;13.13;11.83;;;;;;;-1.13;88.87;99701.16;5068925;28;20187;-82
2021/12/27 05:52:43;;;;;;;15.33;13.50;;;;;;;-1.10;88.61;99703.75;5061405;28;20666;-80
2021/12/27 05:55:11;;;;;;;15.80;14.30;;;;;;;-1.08;88.59;99704.66;5061152;28;20267;-80
2021/12/27 05:57:39;;;;;;;14.30;12.97;;;;;;;-1.09;88.30;99702.94;5062852;28;20224;-80
2021/12/27 06:00:08;;;;;;;13.10;11.83;;;;;;;-1.07;88.57;99708.06;5061479;28;20588;-79
2021/12/27 06:02:35;;;;;;;13.83;12.53;;;;;;;-1.07;88.33;99703.81;5077156;28;20192;-82
2021/12/27 06:05:03;;;;;;;16.63;14.80;;;;;;;-1.09;88.59;99700.38;5058325;28;20282;-82
2021/12/27 06:07:30;;;;;;;14.37;12.97;;;;;;;-1.10;88.88;99703.75;5057354;28;20218;-81
2021/12/27 06:09:57;;;;;;;14.87;13.43;;;;;;;-1.07;88.46;99697.81;5056725;28;20208;-83
2021/12/27 06:12:23;;;;;;;15.13;13.63;;;;;;;-1.09;88.24;99692.69;5054737;28;20193;-78
2021/12/27 06:14:50;;;;;;;14.10;12.57;;;;;;;-1.06;88.73;99697.00;5060658;28;20219;-79
2021/12/27 06:17:17;;;;;;;18.17;15.43;;;;;;;-1.03;88.39;99702.16;5059719;28;20205;-77
2021/12/27 06:19:43;;;;;;;18.47;16.67;;;;;;;-1.00;88.32;99704.78;5054934;28;20255;-77
2021/12/27 06:22:11;;;;;;;14.63;12.97;;;;;;;-1.03;88.53;99700.47;5055684;28;20198;-79
2021/12/27 06:24:37;;;;;;;15.37;13.97;;;;;;;-1.01;88.34;99697.94;5057302;28;20221;-79
2021/12/27 06:27:04;;;;;;;15.63;14.13;;;;;;;-0.97;88.68;99696.28;5058771;28;20243;-79
2021/12/27 06:29:31;;;;;;;14.83;13.57;;;;;;;-0.98;88.62;99682.59;5057533;28;20204;-79
2021/12/27 06:31:57;;;;;;;14.83;13.53;;;;;;;-1.02;88.69;99691.09;5056050;28;20660;-80
2021/12/27 06:34:23;;;;;;;14.27;12.97;;;;;;;-1.03;88.93;99680.00;5056323;28;20730;-78
2021/12/27 06:36:50;;;;;;;16.03;14.17;;;;;;;-0.98;88.77;99672.38;5057957;28;20275;-82
2021/12/27 06:39:18;;;;;;;14.23;12.93;;;;;;;-0.95;88.58;99672.41;5056201;28;20212;-79
2021/12/27 06:41:44;;;;;;;15.27;13.87;;;;;;;-1.01;89.34;99672.34;5055992;28;20230;-80
2021/12/27 06:44:11;;;;;;;15.97;13.53;;;;;;;-1.01;89.12;99669.78;5058357;28;20197;-78
2021/12/27 06:46:37;;;;;;;14.53;13.23;;;;;;;-0.97;89.20;99662.97;5064680;28;20258;-78
2021/12/27 06:49:04;;;;;;;14.70;13.23;;;;;;;-0.90;89.12;99668.22;5061384;28;20595;-78
2021/12/27 06:51:30;;;;;;;13.73;12.53;;;;;;;-0.92;89.02;99663.91;5054183;28;20259;-78
2021/12/27 06:53:57;;;;;;;16.37;14.90;;;;;;;-0.88;88.73;99665.69;5055977;28;20199;-79
2021/12/27 06:56:25;;;;;;;16.83;14.57;;;;;;;-0.91;89.05;99670.75;5058766;28;20599;-79
2021/12/27 06:58:51;;;;;;;13.93;12.63;;;;;;;-0.89;88.78;99671.63;5056718;28;20251;-80
2021/12/27 07:01:18;;;;;;;20.63;18.43;;;;;;;-0.86;88.75;99674.25;5055418;28;20751;-81
2021/12/27 07:03:44;;;;;;;14.63;13.33;;;;;;;-0.85;88.76;99673.41;5054216;28;20251;-79
2021/12/27 07:06:11;;;;;;;15.27;13.77;;;;;;;-0.89;89.04;99672.50;5056913;28;20221;-79
2021/12/27 07:08:37;;;;;;;15.57;14.07;;;;;;;-0.91;88.92;99661.38;5056176;28;20275;-78
2021/12/27 07:11:04;;;;;;;15.93;13.43;;;;;;;-0.91;89.44;99648.56;5053777;28;20197;-79
2021/12/27 07:13:31;;;;;;;16.20;14.67;;;;;;;-0.86;89.48;99646.91;5055451;28;20725;-78
2021/12/27 07:15:58;;;;;;;18.60;16.60;;;;;;;-0.85;89.45;99647.81;5055219;28;20267;-78
2021/12/27 07:18:24;;;;;;;16.93;15.13;;;;;;;-0.86;89.41;99662.28;5054593;28;20272;-79
2021/12/27 07:20:51;;;;;;;16.47;14.93;;;;;;;-0.85;89.62;99658.91;5056985;28;20212;-79
2021/12/27 07:23:18;;;;;;;29.57;21.73;;;;;;;-0.81;89.10;99670.06;5053304;28;20588;-79
2021/12/27 07:25:45;;;;;;;25.97;23.03;;;;;;;-0.79;89.09;99668.38;5054698;28;20271;-79
2021/12/27 07:28:11;;;;;;;19.53;17.43;;;;;;;-0.78;88.57;99674.38;5052945;28;20217;-78
2021/12/27 07:30:39;;;;;;;19.07;16.57;;;;;;;-0.80;89.15;99682.88;5050764;28;20264;-80
2021/12/27 07:33:05;;;;;;;29.23;23.40;;;;;;;-0.81;88.64;99683.72;5054828;28;20206;-79
2021/12/27 07:35:32;;;;;;;16.97;15.47;;;;;;;-0.81;89.43;99673.47;5056688;28;20302;-79
2021/12/27 07:37:58;;;;;;;15.63;14.17;;;;;;;-0.83;89.46;99664.91;5055521;28;20246;-79
2021/12/27 07:40:24;;;;;;;19.27;15.67;;;;;;;-0.84;89.44;99660.59;5057526;28;20300;-78
2021/12/27 07:42:51;;;;;;;26.20;23.10;;;;;;;-0.77;89.86;99665.81;5056756;28;20209;-79
2021/12/27 07:45:17;;;;;;;30.90;24.07;;;;;;;-0.73;89.39;99662.47;5057432;28;20244;-79
2021/12/27 07:47:45;;;;;;;16.43;14.93;;;;;;;-0.74;89.44;99666.72;5054608;28;20231;-78
2021/12/27 07:50:12;;;;;;;14.77;13.37;;;;;;;-0.74;89.05;99665.88;5056501;28;20302;-79
2021/12/27 07:52:38;;;;;;;16.53;14.77;;;;;;;-0.70;89.50;99663.38;5056209;28;20205;-78
2021/12/27 07:55:06;;;;;;;17.00;15.40;;;;;;;-0.72;89.90;99653.94;5053627;28;20216;-79
2021/12/27 07:57:33;;;;;;;15.00;13.53;;;;;;;-0.67;89.70;99660.00;5054892;28;20614;-78
2021/12/27 07:59:59;;;;;;;16.33;14.87;;;;;;;-0.74;89.89;99655.63;5057913;28;20254;-80
2021/12/27 08:02:25;;;;;;;15.63;14.23;;;;;;;-0.74;89.70;99641.09;5054782;28;20251;-79
2021/12/27 08:04:53;;;;;;;18.17;14.83;;;;;;;-0.73;90.28;99634.28;5054537;28;20275;-79
2021/12/27 08:07:19;;;;;;;16.03;14.53;;;;;;;-0.69;90.24;99630.94;5056955;28;20210;-78
2021/12/27 08:09:46;;;;;;;17.23;15.53;;;;;;;-0.66;90.13;99623.28;5053801;28;20224;-79
2021/12/27 08:12:14;;;;;;;16.97;14.90;;;;;;;-0.63;89.88;99636.16;5051258;28;20202;-78
2021/12/27 08:14:41;;;;;;;15.70;14.23;;;;;;;-0.63;89.99;99644.69;5052326;28;20225;-79
2021/12/27 08:17:07;;;;;;;17.00;15.23;;;;;;;-0.65;89.95;99630.13;5054168;28;20678;-79
2021/12/27 08:19:34;;;;;;;16.43;14.47;;;;;;;-0.68;90.42;99632.66;5058193;28;20198;-79
2021/12/27 08:22:02;;;;;;;15.83;14.23;;;;;;;-0.69;90.12;99636.06;5054755;28;20673;-78
2021/12/27 08:24:28;;;;;;;15.60;14.20;;;;;;;-0.67;90.31;99626.69;5058059;28;20225;-79
2021/12/27 08:26:55;;;;;;;15.93;14.33;;;;;;;-0.63;90.28;99620.78;5058517;28;20279;-79
2021/12/27 08:29:21;;;;;;;16.43;14.83;;;;;;;-0.68;90.62;99615.56;5062833;28;20229;-78
2021/12/27 08:31:48;;;;;;;16.30;14.60;;;;;;;-0.61;90.97;99608.84;5059801;28;20235;-77
2021/12/27 08:34:14;;;;;;;16.60;15.00;;;;;;;-0.52;90.28;99615.75;5062842;28;20252;-79
2021/12/27 08:36:40;;;;;;;17.23;14.27;;;;;;;-0.47;90.39;99617.56;5053893;28;20223;-78
2021/12/27 08:39:08;;;;;;;15.87;14.43;;;;;;;-0.45;90.54;99618.44;5058151;28;20198;-79
2021/12/27 08:41:34;;;;;;;16.23;14.63;;;;;;;-0.43;89.71;99627.00;5058918;28;20209;-79
2021/12/27 08:44:04;;;;;;;17.33;15.40;;;;;;;-0.46;90.02;99623.53;5060129;28;20660;-77
2021/12/27 08:46:30;;;;;;;17.40;15.80;;;;;;;-0.52;90.41;99608.94;5056446;28;20622;-79
2021/12/27 08:48:57;;;;;;;17.83;16.13;;;;;;;-0.46;90.38;99601.31;5056434;28;20217;-79
2021/12/27 08:51:24;;;;;;;17.80;15.93;;;;;;;-0.41;90.75;99591.97;5057558;28;20291;-79
2021/12/27 08:53:50;;;;;;;17.53;15.43;;;;;;;-0.39;91.02;99586.88;5057419;28;20259;-78
2021/12/27 08:56:18;;;;;;;18.63;15.47;;;;;;;-0.29;90.83;99593.81;5058252;28;20279;-79
2021/12/27 08:58:45;;;;;;;16.40;14.67;;;;;;;-0.22;90.68;99605.88;5057604;28;20203;-79
2021/12/27 09:01:11;;;;;;;16.00;14.60;;;;;;;-0.24;90.75;99596.44;5056749;28;20215;-78
2021/12/27 09:03:38;;;;;;;17.37;15.33;;;;;;;-0.19;90.20;99593.94;5056305;28;20741;-79
2021/12/27 09:06:05;;;;;;;16.77;15.27;;;;;;;-0.12;89.81;99600.84;5058762;28;20243;-79
2021/12/27 09:08:31;;;;;;;28.53;21.43;;;;;;;-0.09;89.79;99626.53;5057047;28;20220;-79
2021/12/27 09:10:58;;;;;;;25.90;20.30;;;;;;;-0.07;89.89;99623.13;5057497;28;20205;-78
2021/12/27 09:13:28;;;;;;;19.63;17.53;;;;;;;-0.10;89.79;99624.78;5054692;28;20201;-78
2021/12/27 09:15:55;;;;;;;33.13;26.80;;;;;;;-0.08;89.68;99630.81;5061872;28;20226;-79
2021/12/27 09:18:22;;;;;;;20.03;17.47;;;;;;;-0.07;89.46;99633.41;5055577;28;20576;-77
2021/12/27 09:20:49;;;;;;;53.93;31.80;;;;;;;-0.05;90.36;99620.59;5056380;28;20687;-80
2021/12/27 09:23:15;;;;;;;18.60;16.73;;;;;;;-0.03;90.08;99612.06;5058455;28;20271;-78
2021/12/27 09:25:43;;;;;;;17.90;16.10;;;;;;;0.02;90.25;99614.69;5057984;28;20711;-79
2021/12/27 09:28:10;;;;;;;18.60;16.77;;;;;;;0.05;89.53;99618.97;5088903;22;20260;-80
2021/12/27 09:30:38;;;;;;;18.37;16.57;;;;;;;0.12;89.62;99620.75;5075249;28;20761;-79
2021/12/27 09:33:05;;;;;;;17.40;15.77;;;;;;;0.13;89.42;99617.34;5076472;28;20208;-80
2021/12/27 09:35:31;;;;;;;20.00;16.20;;;;;;;0.14;89.60;99626.75;5077222;28;20200;-81
2021/12/27 09:37:57;;;;;;;20.87;16.93;;;;;;;0.21;89.80;99613.16;5074794;28;20213;-80
2021/12/27 09:40:24;;;;;;;23.13;21.07;;;;;;;0.30;90.04;99613.25;5070825;28;20431;-80
2021/12/27 09:42:52;;;;;;;25.83;23.40;;;;;;;0.44;89.29;99622.75;5071132;28;20496;-80
2021/12/27 09:45:19;;;;;;;22.07;19.70;;;;;;;0.49;88.57;99639.06;5069752;28;20705;-80
2021/12/27 09:47:49;;;;;;;18.77;16.97;;;;;;;0.46;88.16;99655.31;5069147;28;20212;-81
2021/12/27 09:50:18;;;;;;;18.43;16.53;;;;;;;0.43;88.33;99649.28;5068375;28;20290;-81
2021/12/27 09:52:45;;;;;;;17.10;15.40;;;;;;;0.47;88.51;99640.75;5066487;28;20197;-81
2021/12/27 09:55:12;;;;;;;23.38;21.20;;;;;;;0.51;88.97;99639.94;5068837;28;20847;-81
2021/12/27 09:57:39;;;;;;;19.67;17.77;;;;;;;0.59;89.00;99640.88;5067608;28;20217;-81
2021/12/27 10:00:07;;;;;;;18.43;16.83;;;;;;;0.64;88.18;99649.47;5073847;28;20322;-81
2021/12/27 10:02:35;;;;;;;21.53;15.77;;;;;;;0.69;87.68;99660.63;5070622;28;20227;-79
2021/12/27 10:05:04;;;;;;;18.63;16.77;;;;;;;0.73;87.73;99670.13;5069393;28;20748;-80
2021/12/27 10:07:31;;;;;;;20.23;17.17;;;;;;;0.73;87.97;99675.25;5066519;28;20222;-80
2021/12/27 10:10:00;;;;;;;17.87;15.87;;;;;;;0.73;88.31;99670.13;5068898;28;20217;-81
2021/12/27 10:12:33;;;;;;;19.50;16.70;;;;;;;0.73;88.30;99656.41;5067318;28;20197;-84
2021/12/27 10:15:00;;;;;;;18.00;16.30;;;;;;;0.73;88.47;99646.13;5071318;28;20201;-81
2021/12/27 10:17:31;;;;;;;19.90;17.13;;;;;;;0.73;88.47;99651.25;5072194;28;20217;-80
2021/12/27 10:20:08;;;;;;;20.10;17.57;;;;;;;0.69;88.00;99652.94;5070133;28;20185;-80
2021/12/27 10:22:40;;;;;;;19.20;17.20;;;;;;;0.70;88.01;99646.13;5066264;28;20675;-81
2021/12/27 10:25:09;;;;;;;18.80;16.57;;;;;;;0.73;88.68;99648.69;5068527;28;20717;-81
2021/12/27 10:27:36;;;;;;;18.70;16.90;;;;;;;0.73;89.29;99621.31;5066366;28;20229;-81
2021/12/27 10:30:11;;;;;;;20.63;16.33;;;;;;;0.77;89.58;99604.19;5071761;28;20892;-81
2021/12/27 10:32:37;;;;;;;18.50;16.60;;;;;;;0.77;89.25;99605.06;5067466;28;20666;-79
2021/12/27 10:35:07;;;;;;;19.47;16.37;;;;;;;0.83;88.63;99601.66;5067949;28;20238;-80
2021/12/27 10:37:35;;;;;;;19.03;17.30;;;;;;;0.89;88.90;99606.00;5069375;28;20217;-80
2021/12/27 10:40:05;;;;;;;22.43;17.40;;;;;;;0.92;89.16;99616.31;5070794;28;20539;-79
2021/12/27 10:42:35;;;;;;;20.90;18.63;;;;;;;0.98;88.06;99622.34;5066909;28;20186;-79
2021/12/27 10:45:05;;;;;;;18.40;16.50;;;;;;;1.01;88.63;99611.19;5069597;28;20248;-80
2021/12/27 10:47:37;;;;;;;21.30;17.63;;;;;;;1.07;89.68;99593.28;5071416;28;20270;-79
2021/12/27 10:50:10;;;;;;;18.67;17.00;;;;;;;1.06;89.34;99585.56;5070056;28;20224;-80
2021/12/27 10:52:45;;;;;;;19.90;17.87;;;;;;;1.19;89.77;99572.78;5069479;28;20204;-80
2021/12/27 10:55:14;;;;;;;18.90;16.90;;;;;;;1.36;90.35;99552.28;5069368;28;20189;-79
2021/12/27 10:57:40;;;;;;;19.23;16.70;;;;;;;1.49;89.95;99545.47;5067584;28;20224;-81
2021/12/27 11:00:31;;;;;;;18.70;16.90;;;;;;;1.61;88.41;99579.81;5072562;28;20286;-82
2021/12/27 11:03:02;;;;;;;17.97;16.27;;;;;;;1.64;87.56;99615.81;5067844;28;20198;-81
2021/12/27 11:05:29;;;;;;;18.43;16.73;;;;;;;1.63;86.67;99634.69;5063902;28;20198;-80
2021/12/27 11:07:59;;;;;;;18.23;16.43;;;;;;;1.61;86.68;99652.69;5064098;28;20217;-81
2021/12/27 11:10:27;;;;;;;20.73;16.90;;;;;;;1.59;86.41;99649.25;5067862;28;20605;-81
2021/12/27 11:12:59;;;;;;;19.63;17.60;;;;;;;1.62;86.19;99659.53;5064749;28;20233;-80
2021/12/27 11:15:25;;;;;;;18.63;16.70;;;;;;;1.59;86.80;99657.81;5070317;28;20624;-80
2021/12/27 11:17:52;;;;;;;19.33;17.43;;;;;;;1.63;87.01;99652.69;5066608;28;20262;-80